Time;durP1;ratioP1;P1;durP2;ratioP2;P2;SDS_P1;SDS_P2;PMS_P1;PMS_P2;Temp;Humidity;BMP_temperature;BMP_pressure;BME280_temperature;BME280_humidity;BME280_pressure;Samples;Min_cycle;Max_cycle;Signal;HPM_P1;HPM_P2
2021/10/15 00:01:38;;;;;;;1.58;1.48;;;23.30;67.30;;;;;;5097606;28;20494;-37
2021/10/15 00:04:04;;;;;;;1.88;1.77;;;23.30;67.40;;;;;;5104363;28;20039;-37
2021/10/15 00:06:30;;;;;;;1.70;1.60;;;23.30;67.60;;;;;;5104849;28;20055;-37
2021/10/15 00:08:56;;;;;;;1.45;1.35;;;23.30;67.60;;;;;;5104612;28;20492;-37
2021/10/15 00:11:22;;;;;;;1.40;1.30;;;23.30;67.60;;;;;;5104895;28;20036;-37
2021/10/15 00:13:49;;;;;;;1.42;1.33;;;23.30;67.60;;;;;;5104715;28;20047;-37
2021/10/15 00:16:15;;;;;;;1.60;1.50;;;23.30;67.60;;;;;;5104456;28;20016;-37
2021/10/15 00:18:42;;;;;;;1.60;1.50;;;23.30;67.80;;;;;;5104173;28;20028;-37
2021/10/15 00:21:08;;;;;;;1.45;1.35;;;23.30;67.70;;;;;;5104713;28;20024;-38
2021/10/15 00:23:34;;;;;;;1.55;1.45;;;23.30;67.80;;;;;;5104263;28;20062;-37
2021/10/15 00:26:01;;;;;;;1.50;1.40;;;23.30;67.90;;;;;;5104358;28;20036;-36
2021/10/15 00:28:27;;;;;;;1.42;1.33;;;23.30;67.90;;;;;;5104319;28;20020;-37
2021/10/15 00:30:57;;;;;;;1.35;1.25;;;23.30;68.00;;;;;;5104258;28;20055;-37
2021/10/15 00:33:23;;;;;;;1.50;1.40;;;23.30;68.00;;;;;;5104041;28;20024;-37
2021/10/15 00:35:49;;;;;;;1.50;1.40;;;23.30;68.00;;;;;;5104499;28;20131;-37
2021/10/15 00:38:15;;;;;;;1.50;1.40;;;23.30;68.00;;;;;;5103747;28;20050;-37
2021/10/15 00:40:41;;;;;;;1.83;1.70;;;23.30;68.00;;;;;;5104270;28;20024;-37
2021/10/15 00:43:07;;;;;;;1.50;1.40;;;23.30;68.10;;;;;;5104195;28;20032;-37
2021/10/15 00:45:33;;;;;;;1.30;1.20;;;23.30;68.10;;;;;;5103540;28;20032;-37
2021/10/15 00:48:00;;;;;;;1.50;1.40;;;23.30;68.10;;;;;;5103752;28;20047;-37
2021/10/15 00:50:26;;;;;;;1.60;1.50;;;23.30;68.10;;;;;;5104106;28;20110;-37
2021/10/15 00:52:52;;;;;;;1.77;1.67;;;23.30;68.10;;;;;;5103946;28;20554;-37
2021/10/15 00:55:18;;;;;;;1.70;1.60;;;23.30;68.10;;;;;;5102579;28;20035;-37
2021/10/15 00:57:44;;;;;;;1.60;1.50;;;23.30;68.10;;;;;;5103697;28;20699;-37
2021/10/15 01:00:10;;;;;;;1.45;1.35;;;23.40;68.10;;;;;;5103733;28;20036;-37
2021/10/15 01:02:37;;;;;;;1.70;1.60;;;23.40;68.10;;;;;;5103608;28;20028;-37
2021/10/15 01:05:04;;;;;;;1.70;1.60;;;23.30;68.20;;;;;;5101893;28;20311;-37
2021/10/15 01:07:30;;;;;;;1.95;1.40;;;23.40;68.30;;;;;;5103713;28;20054;-37
2021/10/15 01:09:57;;;;;;;1.70;1.60;;;23.40;68.30;;;;;;5103715;28;20028;-37
2021/10/15 01:12:23;;;;;;;1.70;1.60;;;23.30;68.40;;;;;;5102153;28;20088;-37
2021/10/15 01:14:49;;;;;;;1.73;1.60;;;23.40;68.50;;;;;;5101964;28;20024;-37
2021/10/15 01:17:15;;;;;;;1.88;1.70;;;23.40;68.60;;;;;;5103520;28;20074;-37
2021/10/15 01:19:41;;;;;;;1.75;1.65;;;23.40;68.70;;;;;;5103580;28;20024;-37
2021/10/15 01:22:08;;;;;;;1.40;1.30;;;23.40;68.70;;;;;;5103405;28;20048;-37
2021/10/15 01:24:34;;;;;;;1.80;1.70;;;23.40;68.70;;;;;;5103029;28;20012;-37
2021/10/15 01:27:07;;;;;;;1.60;1.50;;;23.40;68.70;;;;;;5103371;28;20024;-37
2021/10/15 01:29:34;;;;;;;1.90;1.80;;;23.40;68.60;;;;;;5103301;28;20032;-37
2021/10/15 01:32:00;;;;;;;1.60;1.50;;;23.40;68.60;;;;;;5103284;28;20027;-37
2021/10/15 01:34:26;;;;;;;1.58;1.48;;;23.40;68.50;;;;;;5102839;28;20043;-37
2021/10/15 01:36:52;;;;;;;1.60;1.50;;;23.40;68.60;;;;;;5103203;28;20032;-37
2021/10/15 01:39:19;;;;;;;1.83;1.73;;;23.40;68.40;;;;;;5103128;28;20035;-37
2021/10/15 01:41:45;;;;;;;1.60;1.50;;;23.40;68.40;;;;;;5103175;28;20039;-37
2021/10/15 01:44:11;;;;;;;2.47;1.70;;;23.30;68.30;;;;;;5102691;28;20084;-37
2021/10/15 01:46:37;;;;;;;1.70;1.60;;;23.40;68.40;;;;;;5102917;28;20039;-37
2021/10/15 01:49:03;;;;;;;1.73;1.63;;;23.40;68.40;;;;;;5102728;28;20027;-37
2021/10/15 01:51:29;;;;;;;1.55;1.45;;;23.30;68.30;;;;;;5103021;28;20111;-37
2021/10/15 01:53:55;;;;;;;1.73;1.63;;;23.30;68.30;;;;;;5084472;28;20029;-37
2021/10/15 01:56:21;;;;;;;1.85;1.73;;;23.30;68.40;;;;;;5082218;28;20389;-37
2021/10/15 01:58:48;;;;;;;1.80;1.70;;;23.40;68.50;;;;;;5082622;28;20025;-37
2021/10/15 02:01:14;;;;;;;1.90;1.80;;;23.40;68.50;;;;;;5082623;28;20108;-37
2021/10/15 02:03:40;;;;;;;2.13;1.92;;;23.30;68.40;;;;;;5100715;28;20050;-37
2021/10/15 02:06:07;;;;;;;2.08;1.88;;;23.30;68.50;;;;;;5101913;28;20062;-37
2021/10/15 02:08:33;;;;;;;2.13;1.88;;;23.30;68.50;;;;;;5102709;28;20041;-37
2021/10/15 02:10:59;;;;;;;2.20;2.00;;;23.30;68.60;;;;;;5102691;28;20040;-37
2021/10/15 02:13:25;;;;;;;1.75;1.65;;;23.30;69.40;;;;;;5102734;28;20816;-37
2021/10/15 02:15:51;;;;;;;1.80;1.70;;;23.30;68.60;;;;;;5102366;28;20035;-37
2021/10/15 02:18:17;;;;;;;2.17;2.00;;;23.30;68.60;;;;;;5102345;28;20080;-37
2021/10/15 02:20:44;;;;;;;2.10;1.90;;;23.30;68.50;;;;;;5101503;28;20024;-37
2021/10/15 02:23:10;;;;;;;2.05;1.85;;;23.30;68.40;;;;;;5102587;28;20108;-37
2021/10/15 02:25:36;;;;;;;2.15;1.98;;;23.30;68.40;;;;;;5102254;28;20488;-37
2021/10/15 02:28:03;;;;;;;1.80;1.70;;;23.30;68.30;;;;;;5102545;28;20062;-37
2021/10/15 02:30:29;;;;;;;2.22;2.00;;;23.30;68.20;;;;;;5102714;28;20024;-38
2021/10/15 02:32:55;;;;;;;2.03;1.83;;;23.30;68.20;;;;;;5102570;28;20032;-37
2021/10/15 02:35:21;;;;;;;1.83;1.73;;;23.30;68.30;;;;;;5102388;28;20027;-37
2021/10/15 02:37:47;;;;;;;2.20;2.00;;;23.30;68.20;;;;;;5101209;28;20024;-37
2021/10/15 02:40:14;;;;;;;1.88;1.77;;;23.30;68.20;;;;;;5102402;28;20031;-37
2021/10/15 02:42:40;;;;;;;2.10;1.90;;;23.30;68.20;;;;;;5102517;28;20023;-38
2021/10/15 02:45:07;;;;;;;2.10;1.97;;;23.30;68.30;;;;;;5100456;28;20032;-37
2021/10/15 02:47:33;;;;;;;2.33;1.90;;;23.30;68.30;;;;;;5082242;28;20074;-37
2021/10/15 02:49:59;;;;;;;2.20;2.10;;;23.30;68.40;;;;;;5082075;28;20109;-37
2021/10/15 02:52:25;;;;;;;1.90;1.80;;;23.30;68.40;;;;;;5082236;28;20067;-37
2021/10/15 02:54:52;;;;;;;1.90;1.80;;;23.20;68.30;;;;;;5082060;28;20062;-37
2021/10/15 02:57:18;;;;;;;2.08;1.90;;;23.20;68.30;;;;;;5081896;28;20099;-37
2021/10/15 02:59:44;;;;;;;2.17;1.98;;;23.20;68.30;;;;;;5082068;28;20029;-37
2021/10/15 03:02:10;;;;;;;1.77;1.67;;;23.20;68.30;;;;;;5087688;28;20020;-37
2021/10/15 03:04:36;;;;;;;2.10;1.90;;;23.20;68.20;;;;;;5101894;28;20055;-37
2021/10/15 03:07:03;;;;;;;2.13;1.93;;;23.20;68.30;;;;;;5102023;28;20040;-37
2021/10/15 03:09:29;;;;;;;1.92;1.80;;;23.20;68.20;;;;;;5102249;28;20272;-37
2021/10/15 03:11:55;;;;;;;3.55;1.77;;;23.20;68.20;;;;;;5102139;28;20028;-37
2021/10/15 03:14:22;;;;;;;2.22;2.03;;;23.20;68.20;;;;;;5102164;28;20048;-37
2021/10/15 03:16:48;;;;;;;2.95;1.73;;;23.20;68.20;;;;;;5101939;28;20025;-37
2021/10/15 03:19:15;;;;;;;1.60;1.50;;;23.20;68.20;;;;;;5103650;28;20084;-37
2021/10/15 03:21:41;;;;;;;1.90;1.80;;;23.20;68.30;;;;;;5105666;28;20036;-37
2021/10/15 03:24:07;;;;;;;2.15;1.95;;;23.10;68.20;;;;;;5105763;28;20040;-37
2021/10/15 03:26:33;;;;;;;2.00;1.88;;;23.10;68.30;;;;;;5105198;28;20036;-37
2021/10/15 03:28:59;;;;;;;2.30;2.10;;;23.10;68.30;;;;;;5105596;28;20051;-37
2021/10/15 03:31:25;;;;;;;1.80;1.70;;;23.10;68.30;;;;;;5105530;28;20800;-37
2021/10/15 03:33:51;;;;;;;2.92;2.05;;;23.10;68.30;;;;;;5105245;28;20036;-37
2021/10/15 03:36:18;;;;;;;1.88;1.77;;;23.10;68.30;;;;;;5104978;28;20035;-37
2021/10/15 03:38:44;;;;;;;2.40;2.20;;;23.10;68.40;;;;;;5105467;28;20043;-37
2021/10/15 03:41:10;;;;;;;2.30;2.10;;;23.10;68.40;;;;;;5105220;28;20492;-37
2021/10/15 03:43:36;;;;;;;2.47;2.28;;;23.10;68.40;;;;;;5105283;28;20051;-37
2021/10/15 03:46:02;;;;;;;2.28;1.95;;;23.10;68.40;;;;;;5104977;28;20044;-37
2021/10/15 03:48:28;;;;;;;2.60;1.95;;;23.10;68.40;;;;;;5104996;28;20092;-37
2021/10/15 03:50:54;;;;;;;2.25;2.08;;;23.00;68.40;;;;;;5104612;28;20020;-37
2021/10/15 03:53:20;;;;;;;2.58;1.90;;;23.10;68.40;;;;;;5105166;28;20024;-37
2021/10/15 03:55:47;;;;;;;2.30;2.10;;;23.00;68.40;;;;;;5105102;28;20036;-37
2021/10/15 03:58:13;;;;;;;2.13;1.98;;;23.00;68.50;;;;;;5092138;28;20051;-36
2021/10/15 04:00:39;;;;;;;2.47;2.08;;;23.00;68.40;;;;;;5089299;28;20024;-37
2021/10/15 04:03:06;;;;;;;2.33;2.13;;;23.00;68.50;;;;;;5104867;28;20361;-37
2021/10/15 04:05:32;;;;;;;2.15;2.05;;;23.00;68.50;;;;;;5103227;28;20065;-37
2021/10/15 04:07:58;;;;;;;2.95;2.05;;;23.00;68.50;;;;;;5104629;28;20024;-37
2021/10/15 04:10:24;;;;;;;2.28;2.08;;;23.00;68.60;;;;;;5105002;28;20051;-37
2021/10/15 04:12:50;;;;;;;2.58;2.00;;;23.00;68.60;;;;;;5104541;28;20057;-37
2021/10/15 04:15:17;;;;;;;2.72;2.28;;;23.00;68.60;;;;;;5104639;28;20024;-37
2021/10/15 04:17:43;;;;;;;2.13;2.03;;;23.00;68.70;;;;;;5104332;28;20036;-37
2021/10/15 04:20:09;;;;;;;2.25;2.05;;;22.90;68.60;;;;;;5103151;28;20024;-37
2021/10/15 04:22:36;;;;;;;2.42;2.22;;;22.90;68.70;;;;;;5104530;28;20027;-37
2021/10/15 04:25:02;;;;;;;3.93;2.10;;;22.90;68.70;;;;;;5104443;28;20040;-37
2021/10/15 04:27:28;;;;;;;2.30;2.07;;;22.90;68.60;;;;;;5104074;28;20272;-37
2021/10/15 04:29:54;;;;;;;2.95;2.50;;;22.90;68.70;;;;;;5104168;28;20256;-37
2021/10/15 04:32:21;;;;;;;2.50;2.30;;;22.90;68.70;;;;;;5103687;28;20063;-37
2021/10/15 04:34:47;;;;;;;2.30;2.10;;;22.90;68.70;;;;;;5104016;28;20028;-37
2021/10/15 04:37:13;;;;;;;4.15;2.50;;;22.90;68.80;;;;;;5104091;28;20028;-37
2021/10/15 04:39:39;;;;;;;2.63;2.05;;;22.90;68.80;;;;;;5085815;28;20142;-38
2021/10/15 04:42:05;;;;;;;2.47;1.98;;;22.90;68.80;;;;;;5104139;28;20089;-37
2021/10/15 04:44:31;;;;;;;2.45;2.25;;;22.80;68.80;;;;;;5104035;28;20016;-37
2021/10/15 04:46:57;;;;;;;2.60;2.40;;;22.80;68.90;;;;;;5103443;28;20036;-37
2021/10/15 04:49:24;;;;;;;2.85;2.13;;;22.80;68.80;;;;;;5103762;28;20060;-37
2021/10/15 04:51:50;;;;;;;2.67;2.30;;;22.80;68.90;;;;;;5103962;28;20509;-37
2021/10/15 04:54:16;;;;;;;2.33;2.03;;;22.80;68.90;;;;;;5103907;28;20463;-37
2021/10/15 04:56:42;;;;;;;4.00;2.67;;;22.80;68.90;;;;;;5103391;28;20032;-38
2021/10/15 04:59:09;;;;;;;2.55;2.25;;;22.80;68.90;;;;;;5103769;28;20031;-37
2021/10/15 05:01:35;;;;;;;2.55;2.22;;;22.80;68.90;;;;;;5103715;28;20032;-37
2021/10/15 05:04:01;;;;;;;3.13;2.50;;;22.80;69.00;;;;;;5103453;28;20055;-37
2021/10/15 05:06:27;;;;;;;2.30;2.10;;;22.80;69.00;;;;;;5101922;28;20048;-37
2021/10/15 05:09:15;;;;;;;2.63;2.33;;;22.80;69.00;;;;;;5103300;28;20027;-37
2021/10/15 05:11:45;;;;;;;2.97;2.30;;;22.70;69.00;;;;;;5103594;28;20264;-37
2021/10/15 05:14:11;;;;;;;2.28;2.08;;;22.70;68.90;;;;;;5102120;28;20028;-37
2021/10/15 05:16:38;;;;;;;3.10;2.30;;;22.70;69.00;;;;;;5101959;28;20024;-37
2021/10/15 05:19:04;;;;;;;2.70;2.42;;;22.70;69.00;;;;;;5103155;28;20019;-37
2021/10/15 05:21:30;;;;;;;2.42;2.22;;;22.70;69.00;;;;;;5101947;28;20412;-37
2021/10/15 05:23:56;;;;;;;2.47;2.28;;;22.70;69.10;;;;;;5101985;28;20103;-37
2021/10/15 05:26:22;;;;;;;2.22;2.10;;;22.70;69.10;;;;;;5103198;28;20036;-37
2021/10/15 05:28:48;;;;;;;2.60;2.40;;;22.70;69.10;;;;;;5102908;28;20032;-37
2021/10/15 05:31:14;;;;;;;2.50;2.30;;;22.70;69.20;;;;;;5103122;28;20103;-37
2021/10/15 05:33:40;;;;;;;2.47;2.28;;;22.70;69.20;;;;;;5101450;28;20051;-37
2021/10/15 05:36:07;;;;;;;2.67;2.47;;;22.70;69.30;;;;;;5101665;28;20033;-37
2021/10/15 05:38:33;;;;;;;2.60;2.40;;;22.60;69.20;;;;;;5102793;28;20024;-38
2021/10/15 05:40:59;;;;;;;2.33;2.13;;;22.60;69.20;;;;;;5102741;28;20050;-37
2021/10/15 05:43:25;;;;;;;3.17;2.50;;;22.60;69.20;;;;;;5102680;28;20756;-37
2021/10/15 05:45:51;;;;;;;3.13;2.45;;;22.60;69.20;;;;;;5102871;28;20044;-37
2021/10/15 05:48:17;;;;;;;2.58;2.38;;;22.60;69.20;;;;;;5102556;28;20054;-37
2021/10/15 05:50:44;;;;;;;2.50;2.30;;;22.60;69.30;;;;;;5102858;28;20027;-37
2021/10/15 05:53:12;;;;;;;2.60;2.40;;;22.60;69.30;;;;;;5103055;28;20453;-37
2021/10/15 05:55:59;;;;;;;2.88;2.67;;;22.60;69.30;;;;;;5102805;28;20119;-37
2021/10/15 06:01:10;;;;;;;3.40;2.40;;;22.50;69.30;;;;;;5091182;28;20120;-37
2021/10/15 06:03:37;;;;;;;2.63;2.43;;;22.50;69.30;;;;;;5101129;28;20435;-37
2021/10/15 06:14:25;;;;;;;2.78;2.58;;;22.50;69.40;;;;;;5102437;28;20108;-37
2021/10/15 06:16:57;;;;;;;2.85;2.65;;;22.50;69.50;;;;;;5102472;28;20036;-37
2021/10/15 06:19:26;;;;;;;2.80;2.35;;;22.50;69.50;;;;;;5102136;28;20477;-37
2021/10/15 06:21:52;;;;;;;2.80;2.50;;;22.50;69.50;;;;;;5102635;28;20235;-37
2021/10/15 06:24:18;;;;;;;3.40;2.72;;;22.50;69.60;;;;;;5102470;28;20020;-37
2021/10/15 06:26:44;;;;;;;3.63;2.50;;;22.50;69.60;;;;;;5101036;28;20039;-37
2021/10/15 06:29:11;;;;;;;3.92;2.85;;;22.50;69.60;;;;;;5102176;28;20312;-37
2021/10/15 06:31:37;;;;;;;2.80;2.60;;;22.40;69.60;;;;;;5102469;28;20016;-37
2021/10/15 06:34:03;;;;;;;2.97;2.55;;;22.40;69.60;;;;;;5102330;28;20332;-37
2021/10/15 06:36:29;;;;;;;3.00;2.70;;;22.40;69.60;;;;;;5102547;28;20077;-37
2021/10/15 06:38:55;;;;;;;2.58;2.38;;;22.40;69.60;;;;;;5102173;28;20024;-37
2021/10/15 06:41:22;;;;;;;2.70;2.45;;;22.40;69.70;;;;;;5102543;28;20027;-37
2021/10/15 06:43:48;;;;;;;2.65;2.45;;;22.40;69.70;;;;;;5102261;28;20032;-37
2021/10/15 06:46:14;;;;;;;3.17;2.88;;;22.40;69.60;;;;;;5100847;28;20040;-37
2021/10/15 06:48:40;;;;;;;2.92;2.72;;;22.40;69.70;;;;;;5097902;28;20013;-37
2021/10/15 06:51:06;;;;;;;2.92;2.60;;;22.40;69.70;;;;;;5102364;28;20020;-37
2021/10/15 06:53:33;;;;;;;3.10;2.90;;;22.30;69.70;;;;;;5102693;28;20028;-37
2021/10/15 06:55:59;;;;;;;2.70;2.50;;;22.30;69.70;;;;;;5106130;28;20138;-37
2021/10/15 06:58:25;;;;;;;2.63;2.42;;;22.30;69.80;;;;;;5105874;28;20039;-37
2021/10/15 07:00:51;;;;;;;3.25;2.95;;;22.30;69.80;;;;;;5105910;28;20416;-37
2021/10/15 07:03:18;;;;;;;3.00;2.70;;;22.30;69.80;;;;;;5105766;28;20024;-37
2021/10/15 07:05:44;;;;;;;3.25;2.95;;;22.30;69.90;;;;;;5105492;28;20101;-37
2021/10/15 07:08:11;;;;;;;3.17;2.88;;;22.30;69.90;;;;;;5105932;28;20066;-37
2021/10/15 07:10:37;;;;;;;4.40;2.72;;;22.30;69.90;;;;;;5105607;28;20054;-37
2021/10/15 07:13:04;;;;;;;3.17;2.65;;;22.30;69.90;;;;;;5105788;28;20032;-37
2021/10/15 07:15:31;;;;;;;3.03;2.73;;;22.30;70.00;;;;;;5105869;28;20111;-37
2021/10/15 07:17:58;;;;;;;3.47;2.97;;;22.30;70.00;;;;;;5104225;28;20491;-37
2021/10/15 07:20:27;;;;;;;3.15;2.88;;;22.20;69.90;;;;;;5105310;28;20039;-37
2021/10/15 07:22:54;;;;;;;3.38;2.63;;;22.20;70.00;;;;;;5085296;28;20047;-37
2021/10/15 07:25:21;;;;;;;3.03;2.67;;;22.20;70.00;;;;;;5084978;28;20035;-37
2021/10/15 07:27:47;;;;;;;2.87;2.67;;;22.20;70.00;;;;;;5101946;28;20035;-38
2021/10/15 07:30:13;;;;;;;3.00;2.80;;;22.20;70.00;;;;;;5104323;28;20541;-37
2021/10/15 07:32:39;;;;;;;2.80;2.53;;;22.20;70.00;;;;;;5085107;28;20028;-37
2021/10/15 07:35:05;;;;;;;3.25;2.72;;;22.20;70.00;;;;;;5084966;28;20025;-37
2021/10/15 07:37:32;;;;;;;2.80;2.43;;;22.20;70.10;;;;;;5084986;28;20028;-37
2021/10/15 07:39:58;;;;;;;4.13;3.25;;;22.20;70.10;;;;;;5084761;28;20021;-37
2021/10/15 07:42:24;;;;;;;3.20;2.90;;;22.10;70.10;;;;;;5085207;28;20099;-37
2021/10/15 07:44:50;;;;;;;4.50;2.67;;;22.10;70.20;;;;;;5084716;28;20024;-37
2021/10/15 07:47:16;;;;;;;2.97;2.67;;;22.10;70.10;;;;;;5084871;28;20055;-37
2021/10/15 07:49:43;;;;;;;3.13;2.83;;;22.10;70.10;;;;;;5084365;28;20032;-37
2021/10/15 07:52:09;;;;;;;3.67;2.97;;;22.10;70.20;;;;;;5084778;28;20028;-37
2021/10/15 07:54:35;;;;;;;3.20;2.90;;;22.10;70.20;;;;;;5084550;28;20283;-37
2021/10/15 07:57:04;;;;;;;3.50;3.00;;;22.10;70.20;;;;;;5084629;28;20055;-37
2021/10/15 07:59:30;;;;;;;2.95;2.75;;;22.10;70.30;;;;;;5084397;28;20029;-37
2021/10/15 08:01:56;;;;;;;4.40;2.85;;;22.10;70.30;;;;;;5086003;28;20016;-37
2021/10/15 08:04:22;;;;;;;3.53;3.08;;;22.10;70.30;;;;;;5103574;28;20054;-37
2021/10/15 08:06:49;;;;;;;3.42;3.13;;;22.00;70.20;;;;;;5104608;28;20777;-37
2021/10/15 08:09:15;;;;;;;2.88;2.60;;;22.00;70.30;;;;;;5104646;28;20032;-37
2021/10/15 08:11:42;;;;;;;3.55;3.25;;;22.00;70.30;;;;;;5104517;28;20028;-37
2021/10/15 08:14:08;;;;;;;3.20;2.90;;;22.00;70.30;;;;;;5104629;28;20773;-37
2021/10/15 08:16:34;;;;;;;3.35;3.05;;;22.00;70.30;;;;;;5104553;28;20039;-37
2021/10/15 08:19:00;;;;;;;2.75;2.55;;;22.00;70.40;;;;;;5104477;28;20012;-37
2021/10/15 08:21:26;;;;;;;3.60;3.30;;;22.00;70.40;;;;;;5104153;28;20035;-37
2021/10/15 08:23:52;;;;;;;4.35;3.40;;;22.00;70.40;;;;;;5103915;28;20049;-37
2021/10/15 08:26:18;;;;;;;2.97;2.78;;;22.00;70.40;;;;;;5104266;28;20060;-37
2021/10/15 08:28:46;;;;;;;3.30;3.00;;;22.00;70.50;;;;;;5104356;28;20028;-37
2021/10/15 08:31:13;;;;;;;3.53;3.05;;;22.00;70.50;;;;;;5104041;28;20028;-37
2021/10/15 08:33:40;;;;;;;3.50;3.20;;;21.90;70.50;;;;;;5088366;28;20025;-37
2021/10/15 08:36:07;;;;;;;3.25;2.95;;;21.90;71.30;;;;;;5083705;28;20067;-37
2021/10/15 08:38:33;;;;;;;3.55;3.05;;;21.90;70.60;;;;;;5083811;28;20054;-37
2021/10/15 08:40:59;;;;;;;3.73;3.43;;;21.90;70.60;;;;;;5084437;28;20542;-37
2021/10/15 08:43:39;;;;;;;3.42;3.03;;;21.90;70.60;;;;;;5083974;28;20019;-37
2021/10/15 08:46:05;;;;;;;3.50;3.20;;;21.90;70.70;;;;;;5082263;28;20116;-37
2021/10/15 08:48:38;;;;;;;3.43;3.13;;;21.90;70.70;;;;;;5083413;28;20024;-37
2021/10/15 08:51:05;;;;;;;5.93;3.33;;;21.90;71.50;;;;;;5081922;28;20291;-37
2021/10/15 08:53:43;;;;;;;3.90;3.30;;;21.90;70.80;;;;;;5083397;28;20531;-37
2021/10/15 08:56:09;;;;;;;3.80;3.38;;;21.80;70.70;;;;;;5083333;28;20308;-37
2021/10/15 08:58:45;;;;;;;3.20;2.90;;;21.80;70.70;;;;;;5083378;28;20024;-37
2021/10/15 09:01:11;;;;;;;3.55;3.13;;;21.80;71.40;;;;;;5081759;28;20497;-37
2021/10/15 09:03:37;;;;;;;3.08;2.85;;;21.80;70.70;;;;;;5098489;28;20028;-37
2021/10/15 09:06:07;;;;;;;3.00;2.80;;;21.80;70.70;;;;;;5103212;28;20072;-37
2021/10/15 09:08:49;;;;;;;3.72;3.22;;;21.80;70.80;;;;;;5103474;28;20036;-37
2021/10/15 09:11:41;;;;;;;3.20;2.90;;;21.80;70.80;;;;;;5103247;28;20031;-37
2021/10/15 09:14:16;;;;;;;3.35;3.08;;;21.80;70.80;;;;;;5103415;28;20063;-37
2021/10/15 09:17:02;;;;;;;3.85;3.55;;;21.80;70.90;;;;;;5102702;28;20075;-37
2021/10/15 09:19:42;;;;;;;3.47;3.10;;;21.80;70.90;;;;;;5103386;28;20036;-39
2021/10/15 09:22:22;;;;;;;3.45;3.15;;;21.70;70.80;;;;;;5101610;28;20027;-37
2021/10/15 09:24:51;;;;;;;4.25;3.50;;;21.70;70.90;;;;;;5103174;28;20028;-37
2021/10/15 09:27:33;;;;;;;3.70;3.40;;;21.70;70.90;;;;;;5103027;28;20051;-37
2021/10/15 09:30:03;;;;;;;3.17;2.88;;;21.70;70.90;;;;;;5103260;28;20074;-37
2021/10/15 09:32:32;;;;;;;3.30;3.00;;;21.70;71.00;;;;;;5101141;28;20020;-37
2021/10/15 09:34:58;;;;;;;3.85;3.33;;;21.70;70.90;;;;;;5103211;28;20057;-37
2021/10/15 09:37:32;;;;;;;3.53;3.22;;;21.70;71.00;;;;;;5103089;28;20027;-37
2021/10/15 09:40:11;;;;;;;3.55;3.25;;;21.70;71.10;;;;;;5103132;28;20028;-37
2021/10/15 09:42:48;;;;;;;3.67;3.35;;;21.70;71.10;;;;;;5101395;28;20062;-37
2021/10/15 09:45:20;;;;;;;3.15;2.92;;;21.70;71.10;;;;;;5101601;28;20027;-37
2021/10/15 09:47:48;;;;;;;3.42;3.13;;;21.70;71.10;;;;;;5101157;28;20035;-37
2021/10/15 09:50:14;;;;;;;;;;;21.70;71.10;;;;;;5103637;28;20182;-37
2021/10/15 09:52:49;;;;;;;3.30;3.00;;;21.70;71.10;;;;;;5102623;28;19915;-37
2021/10/15 09:55:25;;;;;;;3.30;2.92;;;21.60;71.10;;;;;;5102616;28;20680;-37
2021/10/15 09:57:53;;;;;;;3.88;3.50;;;21.60;71.10;;;;;;5102806;28;20028;-37
2021/10/15 10:00:30;;;;;;;4.63;3.25;;;21.60;71.10;;;;;;5102778;28;20031;-37
2021/10/15 10:02:56;;;;;;;3.65;3.30;;;21.60;71.10;;;;;;5102303;28;20028;-37
2021/10/15 10:05:22;;;;;;;3.88;3.25;;;21.60;71.10;;;;;;5102535;28;20139;-37
2021/10/15 10:07:50;;;;;;;3.67;3.33;;;21.60;71.30;;;;;;5102621;28;20035;-37
2021/10/15 10:10:19;;;;;;;3.38;3.08;;;21.60;71.30;;;;;;5102495;28;20035;-37
2021/10/15 10:12:45;;;;;;;3.40;3.10;;;21.60;71.20;;;;;;5100019;28;20028;-37
2021/10/15 10:15:15;;;;;;;3.40;3.10;;;21.50;71.20;;;;;;5082348;28;20021;-37
2021/10/15 10:17:50;;;;;;;3.13;2.83;;;21.60;71.30;;;;;;5097621;28;20028;-37
2021/10/15 10:20:17;;;;;;;3.97;3.28;;;21.50;71.30;;;;;;5101227;28;20024;-37
2021/10/15 10:22:59;;;;;;;3.47;3.15;;;21.50;71.40;;;;;;5100829;28;20082;-37
2021/10/15 10:25:25;;;;;;;3.30;2.80;;;21.50;71.30;;;;;;5102400;28;20039;-37
2021/10/15 10:27:52;;;;;;;3.53;3.10;;;21.50;71.40;;;;;;5103559;28;20085;-37
2021/10/15 10:30:27;;;;;;;3.70;3.40;;;21.50;71.40;;;;;;5106629;28;20438;-37
2021/10/15 10:33:00;;;;;;;3.05;2.78;;;21.50;71.40;;;;;;5079682;28;20120;-37
2021/10/15 10:35:28;;;;;;;3.60;3.28;;;21.50;71.40;;;;;;5089408;28;20028;-37
2021/10/15 10:38:19;;;;;;;3.65;3.22;;;21.50;71.40;;;;;;5105159;28;20024;-37
2021/10/15 10:41:00;;;;;;;3.90;3.50;;;21.50;71.50;;;;;;5106463;28;20020;-37
2021/10/15 10:43:44;;;;;;;3.90;3.30;;;21.50;71.50;;;;;;5106068;28;20032;-37
2021/10/15 10:46:21;;;;;;;3.50;3.20;;;21.40;71.40;;;;;;5104779;28;20052;-37
2021/10/15 10:48:51;;;;;;;3.38;3.08;;;21.40;71.50;;;;;;5106201;28;20432;-37
2021/10/15 10:51:24;;;;;;;3.40;3.10;;;21.40;71.50;;;;;;5105756;28;20028;-37
2021/10/15 10:54:05;;;;;;;3.88;3.20;;;21.40;71.50;;;;;;5106214;28;20032;-37
2021/10/15 10:56:44;;;;;;;3.55;3.22;;;21.40;71.50;;;;;;5105985;28;20088;-37
2021/10/15 10:59:20;;;;;;;3.50;3.20;;;21.40;71.60;;;;;;5105953;28;20028;-37
2021/10/15 11:01:46;;;;;;;3.40;3.10;;;21.40;71.60;;;;;;5105618;28;20077;-36
2021/10/15 11:04:29;;;;;;;3.28;2.97;;;21.40;72.30;;;;;;5105776;28;20057;-37
2021/10/15 11:07:06;;;;;;;3.30;3.00;;;21.30;71.60;;;;;;5104337;28;20090;-37
2021/10/15 11:09:41;;;;;;;3.38;3.08;;;21.30;71.60;;;;;;5105887;28;20020;-37
2021/10/15 11:12:07;;;;;;;3.00;2.70;;;21.30;71.60;;;;;;5105548;28;20024;-37
2021/10/15 11:14:51;;;;;;;3.50;3.13;;;21.30;71.70;;;;;;5105597;28;20058;-37
2021/10/15 11:17:17;;;;;;;3.72;3.17;;;21.30;71.70;;;;;;5105691;28;20032;-37
2021/10/15 11:19:44;;;;;;;5.03;3.35;;;21.30;71.70;;;;;;5105595;28;20028;-37
2021/10/15 11:22:10;;;;;;;4.07;3.22;;;21.30;71.80;;;;;;5105283;28;20061;-37
2021/10/15 11:24:37;;;;;;;3.47;3.10;;;21.30;71.80;;;;;;5105728;28;20048;-37
2021/10/15 11:27:21;;;;;;;4.10;3.13;;;21.30;71.80;;;;;;5103946;28;20051;-37
2021/10/15 11:30:08;;;;;;;3.30;2.95;;;21.30;71.80;;;;;;5105381;28;20024;-37
2021/10/15 11:32:48;;;;;;;3.85;3.38;;;21.30;71.80;;;;;;5105065;28;20757;-37
2021/10/15 11:35:19;;;;;;;3.67;2.92;;;21.20;71.70;;;;;;5105303;28;20044;-37
2021/10/15 11:38:19;;;;;;;3.67;3.38;;;21.20;71.80;;;;;;5105113;28;20487;-37
2021/10/15 11:40:46;;;;;;;3.58;3.28;;;21.20;71.80;;;;;;5100386;28;20028;-37
2021/10/15 11:43:12;;;;;;;3.88;3.45;;;21.20;71.80;;;;;;5104781;28;20020;-37
2021/10/15 11:45:45;;;;;;;3.20;2.90;;;21.20;71.90;;;;;;5105309;28;20052;-37
2021/10/15 11:48:41;;;;;;;3.50;3.20;;;21.20;71.90;;;;;;5104895;28;20027;-37
2021/10/15 11:51:08;;;;;;;3.33;3.03;;;21.20;71.90;;;;;;5104953;28;20031;-37
2021/10/15 11:53:40;;;;;;;4.65;3.13;;;21.20;72.70;;;;;;5104754;28;20044;-37
2021/10/15 11:56:08;;;;;;;4.68;3.10;;;21.20;71.90;;;;;;5104872;28;20016;-37
2021/10/15 11:58:38;;;;;;;4.07;3.42;;;21.20;72.00;;;;;;5104907;28;20027;-37
2021/10/15 12:01:08;;;;;;;3.35;2.95;;;21.20;72.00;;;;;;5103403;28;20020;-37
2021/10/15 12:03:55;;;;;;;4.03;3.08;;;21.10;72.00;;;;;;5104286;28;20028;-37
2021/10/15 12:06:32;;;;;;;3.95;2.95;;;21.10;71.40;;;;;;5104258;28;20044;-37
2021/10/15 12:09:08;;;;;;;3.28;2.97;;;21.10;72.00;;;;;;5104642;28;20036;-37
2021/10/15 12:11:37;;;;;;;3.50;3.20;;;21.10;72.10;;;;;;5104451;28;20032;-37
2021/10/15 12:14:08;;;;;;;3.60;3.30;;;21.10;72.10;;;;;;5103781;28;20054;-37
2021/10/15 12:16:47;;;;;;;3.55;3.17;;;21.10;72.10;;;;;;5086202;28;20028;-38
2021/10/15 12:19:25;;;;;;;3.67;3.38;;;21.10;72.00;;;;;;5084041;28;20028;-37
2021/10/15 12:21:57;;;;;;;5.10;3.20;;;21.10;72.10;;;;;;5084103;28;20017;-37
2021/10/15 12:24:32;;;;;;;3.60;2.90;;;21.10;72.10;;;;;;5083946;28;20032;-37
2021/10/15 12:27:20;;;;;;;5.10;3.22;;;21.10;72.10;;;;;;5093852;28;20460;-37
2021/10/15 12:29:51;;;;;;;3.33;3.03;;;21.00;72.00;;;;;;5103032;28;20047;-37
2021/10/15 12:32:28;;;;;;;3.20;2.90;;;21.00;72.00;;;;;;5104007;28;20036;-37
2021/10/15 12:35:08;;;;;;;3.22;2.97;;;21.00;72.10;;;;;;5103822;28;20365;-37
2021/10/15 12:37:43;;;;;;;3.42;3.13;;;21.00;72.10;;;;;;5104273;28;20081;-37
2021/10/15 12:40:13;;;;;;;2.95;2.63;;;21.00;72.20;;;;;;5103844;28;20555;-37
2021/10/15 12:42:39;;;;;;;3.33;3.03;;;21.00;72.20;;;;;;5103990;28;20036;-37
2021/10/15 12:45:07;;;;;;;3.53;3.03;;;21.00;72.10;;;;;;5103670;28;20066;-37
2021/10/15 12:47:33;;;;;;;3.88;3.30;;;21.00;72.20;;;;;;5104055;28;20039;-37
2021/10/15 12:50:00;;;;;;;4.32;3.20;;;21.00;72.20;;;;;;5103799;28;20039;-37
2021/10/15 12:52:36;;;;;;;3.17;2.88;;;21.00;72.20;;;;;;5104015;28;20087;-37
2021/10/15 12:55:20;;;;;;;3.63;3.10;;;21.00;72.20;;;;;;5102122;28;20053;-37
2021/10/15 12:57:47;;;;;;;3.00;2.70;;;21.00;72.20;;;;;;5103695;28;20512;-37
2021/10/15 13:00:23;;;;;;;3.70;3.33;;;21.00;72.20;;;;;;5103885;28;20044;-37
2021/10/15 13:03:05;;;;;;;3.95;3.33;;;21.00;72.20;;;;;;5103716;28;20074;-37
2021/10/15 13:05:32;;;;;;;3.30;3.00;;;20.90;72.20;;;;;;5103408;28;20083;-37
2021/10/15 13:07:58;;;;;;;3.83;3.10;;;21.00;72.30;;;;;;5103725;28;20032;-37